Time;durP1;ratioP1;P1;durP2;ratioP2;P2;SDS_P1;SDS_P2;PMS_P1;PMS_P2;Temp;Humidity;BMP_temperature;BMP_pressure;BME280_temperature;BME280_humidity;BME280_pressure;Samples;Min_cycle;Max_cycle;Signal;HPM_P1;HPM_P2
2021/07/01 06:16:03;;;;;;;14.75;11.63;;;;;;;24.55;68.55;99755.99;1713389;82;21039;-56
2021/07/01 06:18:30;;;;;;;16.60;12.10;;;;;;;24.64;68.44;99754.05;1715664;83;21013;-56
2021/07/01 06:20:56;;;;;;;14.65;12.78;;;;;;;24.70;68.35;99758.80;1714876;83;21458;-57
2021/07/01 06:23:23;;;;;;;18.90;12.37;;;;;;;24.75;68.28;99760.80;1715151;83;20899;-55
2021/07/01 06:25:49;;;;;;;20.60;12.40;;;;;;;24.79;68.15;99762.30;1711356;83;21116;-56
2021/07/01 06:28:16;;;;;;;18.42;11.63;;;;;;;24.82;68.00;99755.61;1713846;83;21014;-56
2021/07/01 06:30:46;;;;;;;;;;;;;;;24.84;68.04;99756.08;1717169;83;21062;-56
2021/07/01 06:33:14;;;;;;;20.57;12.60;;;;;;;24.84;68.20;99754.70;1713080;83;20122;-55
2021/07/01 06:35:40;;;;;;;19.77;12.20;;;;;;;24.86;68.43;99748.89;1716449;83;20935;-56
2021/07/01 06:38:10;;;;;;;15.88;12.20;;;;;;;24.91;68.46;99754.20;1713641;83;21172;-56
2021/07/01 06:40:55;;;;;;;15.80;10.88;;;;;;;24.99;68.41;99750.59;1705878;83;21045;-56
2021/07/01 06:43:41;;;;;;;15.10;12.30;;;;;;;25.06;67.79;99749.27;1685103;83;20904;-56
2021/07/01 06:46:35;;;;;;;15.83;12.23;;;;;;;25.12;67.56;99752.09;1712980;83;21492;-56
2021/07/01 06:49:14;;;;;;;16.15;10.38;;;;;;;25.23;67.84;99742.33;1714534;83;21009;-55
2021/07/01 06:51:59;;;;;;;16.82;10.03;;;;;;;25.28;66.64;99731.72;1708597;83;21228;-55
2021/07/01 06:54:44;;;;;;;12.93;9.45;;;;;;;25.33;65.49;99735.69;1712006;83;21030;-55
2021/07/01 06:57:29;;;;;;;11.95;9.95;;;;;;;25.36;64.45;99730.91;1712912;83;21026;-55
2021/07/01 06:59:56;;;;;;;15.13;9.35;;;;;;;25.41;64.70;99731.28;1715609;83;21026;-56
2021/07/01 07:02:22;;;;;;;17.62;9.78;;;;;;;25.44;64.15;99731.98;1704271;83;21005;-56
2021/07/01 07:04:49;;;;;;;11.63;9.75;;;;;;;25.44;63.40;99734.72;1707598;83;21194;-55
2021/07/01 07:07:15;;;;;;;17.12;9.88;;;;;;;25.42;63.16;99726.83;1711707;83;20963;-56
2021/07/01 07:09:42;;;;;;;12.37;9.23;;;;;;;25.40;63.53;99729.11;1715426;83;21079;-56
2021/07/01 07:12:09;;;;;;;18.65;9.50;;;;;;;25.41;64.03;99725.79;1653474;83;20994;-56
2021/07/01 07:14:37;;;;;;;17.30;9.65;;;;;;;25.42;63.86;99723.29;1681175;83;20950;-56
2021/07/01 07:17:04;;;;;;;17.05;10.50;;;;;;;25.44;63.61;99721.83;1720728;82;21475;-57
2021/07/01 07:19:32;;;;;;;13.30;9.65;;;;;;;25.48;64.45;99720.00;1722005;82;21421;-57
2021/07/01 07:22:00;;;;;;;14.73;10.63;;;;;;;25.55;64.40;99725.55;1718619;82;20998;-56
2021/07/01 07:24:28;;;;;;;16.35;10.30;;;;;;;25.60;64.46;99722.58;1721200;82;21164;-56
2021/07/01 07:26:55;;;;;;;14.13;9.83;;;;;;;25.65;63.87;99721.81;1720838;82;21144;-56
2021/07/01 07:29:22;;;;;;;19.57;10.00;;;;;;;25.75;63.77;99721.99;1723154;82;21312;-56
2021/07/01 07:31:48;;;;;;;14.20;9.88;;;;;;;25.85;62.20;99722.95;1717364;82;20946;-59
2021/07/01 07:34:15;;;;;;;15.98;10.68;;;;;;;25.99;61.36;99723.23;1693765;82;21612;-57
2021/07/01 07:36:41;;;;;;;13.50;9.65;;;;;;;26.14;60.95;99723.98;1655815;82;20915;-59
2021/07/01 07:39:09;;;;;;;16.33;8.20;;;;;;;26.36;60.89;99718.66;1722514;82;20975;-57
2021/07/01 07:41:35;;;;;;;11.57;8.40;;;;;;;26.60;60.69;99714.34;1722311;82;21132;-56
2021/07/01 07:44:03;;;;;;;12.93;9.00;;;;;;;26.90;60.62;99710.84;1690311;82;20963;-57
2021/07/01 07:46:31;;;;;;;15.32;9.38;;;;;;;27.29;59.92;99710.45;1719813;82;21380;-55
2021/07/01 07:48:58;;;;;;;14.85;9.68;;;;;;;27.67;58.68;99702.36;1720761;82;21477;-57
2021/07/01 07:51:29;;;;;;;11.97;8.48;;;;;;;27.97;55.81;99703.41;1721047;82;20986;-54
2021/07/01 07:54:00;;;;;;;15.75;8.65;;;;;;;28.07;54.74;99697.97;1717818;82;21104;-53
2021/07/01 07:56:36;;;;;;;11.22;9.30;;;;;;;28.01;54.45;99691.91;1722676;82;21026;-52
2021/07/01 07:58:57;;;;;;;15.15;9.90;;;;;;;27.93;54.56;99696.41;1719821;82;20966;-54
2021/07/01 08:01:24;;;;;;;14.45;9.08;;;;;;;27.85;55.32;99698.73;1722246;82;20997;-54
2021/07/01 08:03:53;;;;;;;11.70;9.23;;;;;;;27.84;55.11;99701.27;1723168;82;21471;-56
2021/07/01 08:06:23;;;;;;;11.50;8.28;;;;;;;27.76;54.28;99697.50;1722206;82;21081;-57
2021/07/01 08:08:52;;;;;;;11.95;8.15;;;;;;;27.64;55.06;99695.39;1703204;84;21098;-55
2021/07/01 08:11:19;;;;;;;10.75;8.28;;;;;;;27.64;55.39;99696.18;1679830;84;21485;-54
2021/07/01 08:13:50;;;;;;;14.30;7.95;;;;;;;27.70;55.06;99690.64;1703737;84;21536;-56
2021/07/01 08:16:16;;;;;;;12.60;8.35;;;;;;;27.77;55.24;99691.44;1691324;83;21500;-56
2021/07/01 08:18:42;;;;;;;12.80;8.23;;;;;;;27.86;55.78;99698.95;1721381;82;21113;-55
2021/07/01 08:21:16;;;;;;;17.02;9.00;;;;;;;28.00;55.89;99699.16;1721347;82;21033;-56
2021/07/01 08:23:41;;;;;;;13.98;8.83;;;;;;;28.11;55.31;99691.40;1719405;82;20911;-55
2021/07/01 08:26:09;;;;;;;13.90;8.78;;;;;;;28.20;53.62;99689.86;1720594;82;21066;-52
2021/07/01 08:28:36;;;;;;;12.07;8.85;;;;;;;28.20;54.33;99699.50;1721905;82;21521;-53
2021/07/01 08:31:15;;;;;;;17.27;8.85;;;;;;;28.20;54.01;99703.63;1721683;82;21158;-52
2021/07/01 08:33:44;;;;;;;12.05;8.43;;;;;;;28.17;54.69;99698.05;1717201;82;21555;-55
2021/07/01 08:36:20;;;;;;;13.80;8.25;;;;;;;28.19;55.79;99706.16;1721781;82;21509;-56
2021/07/01 08:38:52;;;;;;;14.18;9.13;;;;;;;28.24;53.75;99700.95;1718666;82;20934;-56
2021/07/01 08:41:22;;;;;;;14.13;8.65;;;;;;;28.23;54.13;99708.44;1721340;82;21054;-56
2021/07/01 08:43:57;;;;;;;12.68;8.75;;;;;;;28.26;55.35;99711.06;1718703;82;21147;-56
2021/07/01 08:46:48;;;;;;;9.63;8.30;;;;;;;28.38;56.23;99712.95;1717672;82;21143;-53
2021/07/01 08:49:34;;;;;;;10.63;8.40;;;;;;;28.49;55.08;99709.30;1717845;82;20986;-54
2021/07/01 08:52:04;;;;;;;15.93;8.63;;;;;;;28.52;54.42;99709.73;1720238;82;20954;-53
2021/07/01 08:54:36;;;;;;;11.73;9.40;;;;;;;28.56;54.67;99709.25;1722443;82;20986;-54
2021/07/01 08:57:07;;;;;;;10.63;8.78;;;;;;;28.64;54.75;99714.62;1719816;82;21805;-55
2021/07/01 08:59:44;;;;;;;9.80;8.03;;;;;;;28.79;55.11;99718.52;1721781;82;21002;-54
2021/07/01 09:02:11;;;;;;;12.58;8.18;;;;;;;29.01;55.52;99719.83;1720654;82;21019;-56
2021/07/01 09:04:49;;;;;;;13.38;8.05;;;;;;;29.25;55.13;99715.27;1722423;82;21109;-55
2021/07/01 09:07:24;;;;;;;14.07;8.65;;;;;;;29.43;54.70;99707.95;1719996;82;21553;-55
2021/07/01 09:09:57;;;;;;;11.57;8.50;;;;;;;29.50;54.02;99713.63;1722052;82;21207;-56
2021/07/01 09:12:25;;;;;;;9.75;8.43;;;;;;;29.58;53.85;99707.11;1721835;82;20907;-57
2021/07/01 09:14:57;;;;;;;12.98;8.85;;;;;;;29.68;52.83;99690.52;1723711;82;20998;-55
2021/07/01 09:17:27;;;;;;;11.57;8.23;;;;;;;29.79;52.38;99685.23;1718222;82;20907;-56
2021/07/01 09:19:55;;;;;;;16.07;8.93;;;;;;;29.94;52.72;99690.48;1725396;82;21522;-58
2021/07/01 09:22:24;;;;;;;;;;;;;;;30.04;50.95;99687.11;1764651;80;21735;-55
2021/07/01 09:24:51;;;;;;;11.18;7.80;;;;;;;30.04;51.05;99684.35;1726293;82;20130;-56
2021/07/01 09:27:17;;;;;;;13.13;7.67;;;;;;;30.01;50.83;99685.88;1722071;82;21043;-55
2021/07/01 09:29:47;;;;;;;15.23;7.78;;;;;;;30.04;51.38;99688.50;1722126;82;21567;-57
2021/07/01 09:32:17;;;;;;;15.25;7.45;;;;;;;30.08;50.75;99687.98;1718798;82;21061;-56
2021/07/01 09:34:46;;;;;;;9.20;7.12;;;;;;;30.14;52.22;99687.08;1722853;82;21124;-57
2021/07/01 09:37:15;;;;;;;10.43;7.03;;;;;;;30.24;51.68;99678.17;1724859;82;21468;-57
2021/07/01 09:39:41;;;;;;;10.68;7.72;;;;;;;30.34;50.19;99667.10;1717034;82;21027;-56
2021/07/01 09:42:09;;;;;;;10.43;7.22;;;;;;;30.36;49.17;99665.58;1723328;82;21065;-55
2021/07/01 09:44:39;;;;;;;12.37;6.95;;;;;;;30.33;49.17;99658.59;1722317;82;20923;-57
2021/07/01 09:47:09;;;;;;;7.97;6.92;;;;;;;30.34;50.38;99656.83;1722640;82;21176;-56
2021/07/01 09:49:43;;;;;;;8.90;6.75;;;;;;;30.40;50.59;99651.80;1721049;82;21009;-57
2021/07/01 09:52:13;;;;;;;13.93;6.67;;;;;;;30.46;50.61;99644.81;1722414;82;21545;-57
2021/07/01 09:54:43;;;;;;;12.98;7.58;;;;;;;30.50;50.40;99644.89;1723306;82;21089;-56
2021/07/01 09:57:16;;;;;;;8.33;6.95;;;;;;;30.50;49.38;99641.52;1721648;82;21068;-57
2021/07/01 09:59:49;;;;;;;13.35;6.70;;;;;;;30.47;48.67;99640.89;1719000;82;21147;-56
2021/07/01 10:02:20;;;;;;;10.15;7.35;;;;;;;30.43;48.44;99637.27;1721458;82;20950;-56
2021/07/01 10:04:47;;;;;;;12.60;7.08;;;;;;;30.39;48.27;99632.26;1720666;82;21043;-56
2021/07/01 10:07:17;;;;;;;14.05;7.30;;;;;;;30.28;47.54;99637.59;1721560;82;20967;-56
2021/07/01 10:09:46;;;;;;;18.82;6.95;;;;;;;30.17;48.18;99633.27;1723311;82;21564;-56
2021/07/01 10:12:19;;;;;;;8.45;6.62;;;;;;;30.16;49.92;99632.27;1721585;82;21144;-56
2021/07/01 10:14:50;;;;;;;12.88;7.40;;;;;;;30.20;49.23;99628.98;1721785;82;20927;-56
2021/07/01 10:17:20;;;;;;;12.75;7.35;;;;;;;30.23;49.12;99619.95;1718748;82;20991;-56
2021/07/01 10:19:46;;;;;;;10.95;7.33;;;;;;;30.20;48.64;99611.02;1721353;82;20939;-55
2021/07/01 10:22:18;;;;;;;12.05;7.60;;;;;;;30.15;48.34;99612.13;1722481;82;21041;-57
2021/07/01 10:25:02;;;;;;;10.95;7.42;;;;;;;30.07;49.01;99613.16;1721298;82;21848;-57
2021/07/01 10:27:36;;;;;;;16.23;10.55;;;;;;;30.08;49.11;99609.81;1707052;82;21013;-56
2021/07/01 10:30:24;;;;;;;22.67;16.95;;;;;;;30.05;50.83;99608.60;1705261;83;21006;-56
2021/07/01 10:32:51;;;;;;;;;;;;;;;29.83;52.29;99605.45;1699919;84;20963;-56
2021/07/01 10:35:34;;;;;;;24.25;17.30;;;;;;;29.50;53.02;99615.05;1703682;83;20114;-57
2021/07/01 10:38:12;;;;;;;27.50;18.02;;;;;;;29.17;54.50;99611.41;1705521;84;21976;-56
2021/07/01 10:40:47;;;;;;;;;;;;;;;29.06;55.63;99614.52;1707981;84;20947;-57
2021/07/01 10:43:16;;;;;;;20.17;15.55;;;;;;;29.04;55.84;99609.95;1704986;84;20202;-55
2021/07/01 10:45:56;;;;;;;23.22;16.35;;;;;;;29.01;56.04;99608.12;1705345;83;21073;-57
2021/07/01 10:48:24;;;;;;;27.58;17.75;;;;;;;28.87;56.17;99614.69;1716337;82;20887;-56
2021/07/01 10:50:53;;;;;;;24.52;15.93;;;;;;;28.74;56.68;99615.97;1720577;82;21140;-57
2021/07/01 10:53:28;;;;;;;;;;;;;;;28.65;56.51;99603.20;1722655;82;20982;-56
2021/07/01 10:56:00;;;;;;;18.10;14.53;;;;;;;28.66;57.10;99612.27;1719729;82;20533;-56
2021/07/01 10:58:27;;;;;;;27.10;16.02;;;;;;;28.72;56.25;99604.52;1721080;82;21556;-56
2021/07/01 11:00:56;;;;;;;19.42;13.13;;;;;;;28.79;56.24;99604.68;1722976;82;21535;-55
2021/07/01 11:03:31;;;;;;;10.58;7.70;;;;;;;28.88;56.50;99596.20;1722547;82;21217;-56
2021/07/01 11:06:02;;;;;;;16.52;6.70;;;;;;;28.99;53.29;99593.90;1716792;82;20935;-56
2021/07/01 11:08:35;;;;;;;10.82;5.62;;;;;;;29.12;50.01;99593.19;1724023;82;20994;-56
2021/07/01 11:11:19;;;;;;;7.87;5.72;;;;;;;29.22;48.74;99585.52;1721488;82;21529;-56
2021/07/01 11:14:02;;;;;;;10.85;5.45;;;;;;;29.28;47.33;99582.67;1719693;82;21041;-57
2021/07/01 11:16:39;;;;;;;12.73;4.62;;;;;;;29.31;46.36;99579.19;1719407;82;21159;-56
2021/07/01 11:19:09;;;;;;;7.10;4.80;;;;;;;29.29;44.70;99574.03;1703813;84;20986;-57
2021/07/01 11:21:36;;;;;;;8.10;4.87;;;;;;;29.24;44.78;99568.83;1719479;82;21213;-57
2021/07/01 11:24:22;;;;;;;7.97;4.25;;;;;;;29.18;44.08;99572.42;1711223;82;20934;-56
2021/07/01 11:26:52;;;;;;;8.93;4.80;;;;;;;29.16;44.63;99563.69;1684441;83;21047;-56
2021/07/01 11:29:43;;;;;;;8.80;4.55;;;;;;;29.19;44.74;99554.69;1660019;85;21072;-55
2021/07/01 11:32:24;;;;;;;12.07;4.65;;;;;;;29.23;44.88;99558.94;1709211;83;20961;-56
2021/07/01 11:34:52;;;;;;;9.30;5.17;;;;;;;29.23;45.51;99561.70;1705398;84;20970;-56
2021/07/01 11:37:39;;;;;;;7.72;4.67;;;;;;;29.21;45.73;99553.53;1706676;83;20997;-58
2021/07/01 11:40:20;;;;;;;6.53;4.95;;;;;;;29.17;45.08;99550.13;1709451;83;20992;-55
2021/07/01 11:42:50;;;;;;;10.68;4.95;;;;;;;29.18;45.80;99545.39;1727003;82;20935;-56
2021/07/01 11:45:18;;;;;;;6.53;4.30;;;;;;;29.17;46.12;99550.13;1723158;82;20979;-56
2021/07/01 11:47:46;;;;;;;10.03;5.00;;;;;;;29.18;45.65;99548.97;1717632;82;21042;-56
2021/07/01 11:50:13;;;;;;;8.68;5.33;;;;;;;29.18;45.39;99544.83;1692619;82;21045;-56
2021/07/01 11:52:43;;;;;;;11.88;5.40;;;;;;;29.17;45.11;99537.70;1704815;82;20962;-57
2021/07/01 11:55:12;;;;;;;10.70;5.37;;;;;;;29.15;46.09;99542.80;1676672;84;21790;-56
2021/07/01 11:57:38;;;;;;;9.80;5.45;;;;;;;29.13;46.61;99541.56;1678392;85;20972;-56
2021/07/01 12:00:07;;;;;;;8.58;4.97;;;;;;;29.12;46.76;99535.26;1703858;84;21460;-56
2021/07/01 12:02:43;;;;;;;12.28;5.42;;;;;;;29.14;46.48;99536.27;1703242;82;21010;-55
2021/07/01 12:05:12;;;;;;;9.23;5.55;;;;;;;29.16;46.51;99539.45;1709102;82;21005;-56
2021/07/01 12:07:41;;;;;;;9.23;5.53;;;;;;;29.14;45.37;99528.78;1715301;82;21869;-56
2021/07/01 12:10:08;;;;;;;7.22;4.40;;;;;;;29.13;45.95;99524.42;1656697;82;21026;-56
2021/07/01 12:12:37;;;;;;;12.20;5.22;;;;;;;29.14;46.72;99519.13;1720936;82;21025;-56
2021/07/01 12:15:10;;;;;;;10.32;5.33;;;;;;;29.19;47.04;99521.58;1721361;82;21010;-56
2021/07/01 12:17:58;;;;;;;8.73;5.65;;;;;;;29.21;47.24;99528.70;1714916;82;21583;-56
2021/07/01 12:20:39;;;;;;;9.48;4.92;;;;;;;29.19;47.21;99527.09;1713411;83;21200;-57
2021/07/01 12:23:21;;;;;;;9.43;5.40;;;;;;;29.18;47.78;99521.37;1707281;83;21113;-56
2021/07/01 12:25:52;;;;;;;10.30;5.30;;;;;;;29.20;47.16;99518.25;1710820;83;20959;-56
2021/07/01 12:28:23;;;;;;;12.70;5.55;;;;;;;29.21;47.42;99511.58;1711492;83;20995;-56
2021/07/01 12:31:08;;;;;;;13.20;5.22;;;;;;;29.23;47.14;99518.94;1714557;83;21011;-56
2021/07/01 12:33:55;;;;;;;8.40;4.53;;;;;;;29.24;46.33;99518.34;1713109;83;21556;-56
2021/07/01 12:36:40;;;;;;;13.13;5.50;;;;;;;29.24;46.34;99521.09;1712849;83;20943;-55
2021/07/01 12:39:17;;;;;;;7.92;4.60;;;;;;;29.24;45.27;99513.64;1713388;83;21073;-56
2021/07/01 12:41:55;;;;;;;11.88;4.92;;;;;;;29.22;45.06;99515.95;1712829;83;20955;-56
2021/07/01 12:44:28;;;;;;;;;;;;;;;29.16;45.95;99516.00;1710740;83;21555;-56
2021/07/01 12:47:15;;;;;;;11.15;5.45;;;;;;;29.11;46.27;99522.62;1709281;83;21165;-55
2021/07/01 12:49:45;;;;;;;9.98;4.72;;;;;;;29.10;46.43;99517.47;1709399;83;21007;-55
2021/07/01 12:52:14;;;;;;;9.33;4.80;;;;;;;29.11;46.25;99520.45;1713722;83;21010;-56
2021/07/01 12:54:47;;;;;;;8.48;4.20;;;;;;;29.10;46.98;99520.22;1713832;83;20927;-57
2021/07/01 12:57:15;;;;;;;10.13;4.35;;;;;;;29.10;47.01;99518.84;1713867;83;21437;-56
2021/07/01 12:59:47;;;;;;;9.38;5.30;;;;;;;29.07;46.45;99514.84;1716234;83;21160;-56
2021/07/01 13:02:31;;;;;;;11.30;4.60;;;;;;;29.04;46.02;99522.47;1716560;83;21055;-56
2021/07/01 13:05:07;;;;;;;10.53;4.35;;;;;;;28.98;46.63;99520.58;1715419;83;21101;-56
2021/07/01 13:07:33;;;;;;;9.98;4.37;;;;;;;28.94;44.33;99518.91;1713449;83;20994;-56
2021/07/01 13:10:10;;;;;;;6.35;3.90;;;;;;;28.87;45.77;99520.94;1712185;83;20896;-55
2021/07/01 13:12:42;;;;;;;9.28;3.58;;;;;;;28.81;45.34;99527.34;1713211;83;21816;-56
2021/07/01 13:15:19;;;;;;;7.37;3.90;;;;;;;28.79;45.04;99527.48;1710958;83;20958;-56
2021/07/01 13:17:43;;;;;;;21.70;6.65;;;;;;;28.76;45.02;99524.86;1706868;83;20923;-56
2021/07/01 13:20:12;;;;;;;7.45;3.60;;;;;;;28.76;45.03;99526.83;1711827;83;21485;-56
2021/07/01 13:22:43;;;;;;;11.22;3.70;;;;;;;28.74;43.32;99524.43;1712491;83;20998;-57
2021/07/01 13:25:14;;;;;;;10.38;3.75;;;;;;;28.74;43.68;99527.75;1711204;83;21164;-55
2021/07/01 13:27:45;;;;;;;130.43;29.25;;;;;;;28.74;43.91;99536.02;1716905;83;21428;-56
2021/07/01 13:30:34;;;;;;;78.37;12.10;;;;;;;28.76;43.60;99540.61;1714596;83;20948;-56
2021/07/01 13:33:07;;;;;;;8.30;3.20;;;;;;;28.75;42.29;99539.79;1712913;83;21572;-55
2021/07/01 13:35:48;;;;;;;8.05;3.77;;;;;;;28.73;43.04;99544.88;1709644;83;21620;-56
2021/07/01 13:38:20;;;;;;;9.05;3.45;;;;;;;28.69;42.94;99537.70;1711824;83;21146;-56
2021/07/01 13:40:48;;;;;;;11.18;3.98;;;;;;;28.62;42.24;99536.39;1713637;83;20971;-57
2021/07/01 13:43:16;;;;;;;14.68;3.77;;;;;;;28.57;42.55;99541.34;1712124;83;21003;-57
2021/07/01 13:45:45;;;;;;;10.68;3.40;;;;;;;28.53;42.98;99539.87;1713361;83;21500;-57
2021/07/01 13:48:24;;;;;;;9.83;3.60;;;;;;;28.53;43.42;99540.46;1710358;83;21062;-56
2021/07/01 13:50:54;;;;;;;9.73;4.00;;;;;;;28.53;43.65;99543.22;1711610;83;21145;-56
2021/07/01 13:53:26;;;;;;;10.32;3.80;;;;;;;28.55;44.35;99536.75;1713447;83;20927;-55
2021/07/01 13:56:02;;;;;;;13.68;3.37;;;;;;;28.55;45.15;99537.57;1715701;83;21029;-55
2021/07/01 13:58:31;;;;;;;6.47;3.58;;;;;;;28.52;45.59;99554.02;1699990;83;20959;-56
2021/07/01 14:00:59;;;;;;;10.60;4.00;;;;;;;28.48;45.48;99558.87;1697733;84;21122;-56
2021/07/01 14:03:27;;;;;;;;;;;;;;;28.46;45.24;99554.30;1700235;84;21156;-56
2021/07/01 14:06:10;;;;;;;8.33;3.30;;;;;;;28.43;45.03;99554.20;1697853;84;28220;-57
2021/07/01 14:08:46;;;;;;;11.12;4.55;;;;;;;28.39;45.34;99541.73;1697020;84;21516;-57
2021/07/01 14:11:23;;;;;;;10.68;3.58;;;;;;;28.37;45.06;99541.31;1697697;84;21035;-56
2021/07/01 14:13:57;;;;;;;11.20;3.42;;;;;;;28.36;45.08;99543.02;1697867;84;21071;-56
2021/07/01 14:16:23;;;;;;;6.85;3.17;;;;;;;28.32;43.96;99540.19;1697707;84;21181;-56
2021/07/01 14:18:55;;;;;;;9.33;3.35;;;;;;;28.29;43.07;99536.19;1671779;84;21038;-57
2021/07/01 14:21:40;;;;;;;6.80;2.80;;;;;;;28.28;42.38;99535.17;1679534;85;21006;-56
2021/07/01 14:24:18;;;;;;;12.43;3.02;;;;;;;28.25;42.62;99539.46;1700924;84;20998;-57
2021/07/01 14:26:48;;;;;;;7.73;2.47;;;;;;;28.23;41.58;99532.70;1701978;82;21029;-56
2021/07/01 14:29:15;;;;;;;10.25;3.17;;;;;;;28.21;41.94;99546.02;1709428;82;21882;-61
2021/07/01 14:31:42;;;;;;;11.70;2.83;;;;;;;28.18;42.95;99535.16;1720317;82;21057;-57
2021/07/01 14:34:09;;;;;;;4.30;2.72;;;;;;;28.17;41.97;99539.06;1721715;82;21009;-56
2021/07/01 14:36:51;;;;;;;;;;;;;;;28.16;42.88;99539.42;1719224;82;20986;-56
2021/07/01 14:39:22;;;;;;;7.33;2.80;;;;;;;28.14;42.88;99539.78;1717185;82;20448;-56
2021/07/01 14:42:04;;;;;;;7.58;3.25;;;;;;;28.10;42.52;99546.56;1716967;82;21144;-60
2021/07/01 14:44:31;;;;;;;6.20;3.12;;;;;;;28.08;43.42;99542.00;1719697;82;21501;-59
2021/07/01 14:46:58;;;;;;;9.08;3.45;;;;;;;28.08;44.37;99542.58;1715058;82;21093;-59
2021/07/01 14:49:35;;;;;;;5.78;3.30;;;;;;;28.09;44.46;99538.66;1720483;82;21035;-56
2021/07/01 14:52:05;;;;;;;10.03;3.60;;;;;;;28.08;44.37;99535.11;1723696;82;20943;-56
2021/07/01 14:54:49;;;;;;;14.75;3.92;;;;;;;28.06;45.29;99536.05;1718933;82;21052;-55
2021/07/01 14:57:20;;;;;;;7.50;3.55;;;;;;;28.06;45.57;99539.37;1716332;82;21033;-55
2021/07/01 15:00:00;;;;;;;9.33;4.03;;;;;;;28.05;45.81;99530.31;1719650;82;20997;-58
2021/07/01 15:02:40;;;;;;;10.20;3.92;;;;;;;28.04;46.63;99537.56;1717378;82;21018;-56
2021/07/01 15:05:20;;;;;;;8.30;3.37;;;;;;;28.05;46.91;99539.17;1718331;82;20903;-55
2021/07/01 15:08:01;;;;;;;13.05;3.92;;;;;;;28.06;47.10;99538.81;1718032;82;21160;-55
2021/07/01 15:10:34;;;;;;;6.40;3.52;;;;;;;28.08;47.31;99537.87;1702722;82;20970;-55
2021/07/01 15:13:08;;;;;;;5.65;3.17;;;;;;;28.10;47.40;99537.51;1719890;82;20951;-56
2021/07/01 15:15:37;;;;;;;10.00;3.50;;;;;;;28.12;46.85;99532.42;1719454;82;21551;-55
2021/07/01 15:18:05;;;;;;;11.63;3.75;;;;;;;28.12;47.02;99527.73;1714440;82;20991;-55
2021/07/01 15:20:32;;;;;;;6.58;3.42;;;;;;;28.13;47.22;99532.66;1713773;83;23284;-56
2021/07/01 15:22:59;;;;;;;5.33;2.50;;;;;;;28.13;47.09;99533.45;1698569;83;37335;-56
2021/07/01 15:25:26;;;;;;;7.75;2.70;;;;;;;28.12;45.47;99537.94;1697722;84;21115;-56
2021/07/01 15:27:53;;;;;;;5.73;2.63;;;;;;;28.12;45.06;99535.19;1699899;83;21046;-55
2021/07/01 15:30:21;;;;;;;7.33;2.70;;;;;;;28.09;44.87;99527.64;1716185;83;21392;-55
2021/07/01 15:32:48;;;;;;;;;;;;;;;28.11;45.05;99526.72;1717016;83;21297;-55
2021/07/01 15:35:15;;;;;;;7.35;2.47;;;;;;;28.09;45.39;99528.45;1713827;83;20444;-56
2021/07/01 15:37:41;;;;;;;8.53;2.90;;;;;;;28.08;45.15;99530.19;1713715;83;20979;-55
2021/07/01 15:40:13;;;;;;;5.25;2.27;;;;;;;28.07;45.29;99530.75;1713727;83;21678;-55
2021/07/01 15:42:41;;;;;;;7.03;3.02;;;;;;;28.07;45.36;99522.48;1713384;83;20970;-55
2021/07/01 15:45:10;;;;;;;4.78;2.25;;;;;;;28.06;45.76;99525.04;1716986;83;21191;-56
2021/07/01 15:47:38;;;;;;;5.90;2.60;;;;;;;28.07;45.98;99521.70;1711317;83;20982;-56
2021/07/01 15:50:06;;;;;;;4.70;2.30;;;;;;;28.08;46.24;99521.34;1711018;83;20919;-57
2021/07/01 15:52:32;;;;;;;6.83;2.42;;;;;;;28.09;46.33;99515.24;1711423;83;21027;-56
2021/07/01 15:54:59;;;;;;;9.48;2.92;;;;;;;28.10;46.59;99516.84;1703564;83;20966;-55
2021/07/01 15:57:25;;;;;;;6.00;2.83;;;;;;;28.11;46.24;99513.73;1697589;84;21218;-56
2021/07/01 15:59:53;;;;;;;4.67;2.60;;;;;;;28.09;46.35;99516.06;1705322;83;21091;-55
2021/07/01 16:02:19;;;;;;;8.05;2.58;;;;;;;28.07;46.70;99514.22;1716079;83;20994;-55
2021/07/01 16:04:46;;;;;;;4.37;2.75;;;;;;;28.05;47.07;99515.17;1714716;83;21516;-56
2021/07/01 16:07:13;;;;;;;9.08;3.45;;;;;;;28.04;47.70;99516.31;1715244;83;21018;-56
2021/07/01 16:09:40;;;;;;;5.80;2.80;;;;;;;28.01;48.06;99517.62;1710889;83;21100;-55
2021/07/01 16:12:09;;;;;;;8.43;3.37;;;;;;;27.95;47.97;99510.95;1714165;82;20951;-56
2021/07/01 16:14:37;;;;;;;10.05;3.60;;;;;;;27.89;48.31;99509.64;1707240;83;21465;-55
2021/07/01 16:17:04;;;;;;;5.53;2.70;;;;;;;27.85;48.09;99509.33;1715495;83;21548;-56
2021/07/01 16:19:31;;;;;;;9.18;3.20;;;;;;;27.81;48.38;99513.35;1724078;82;20919;-56
2021/07/01 16:21:59;;;;;;;10.78;3.15;;;;;;;27.78;48.56;99505.81;1727761;82;21017;-56
2021/07/01 16:24:27;;;;;;;4.60;2.87;;;;;;;27.77;48.79;99511.91;1727101;82;20998;-55
2021/07/01 16:26:57;;;;;;;10.28;2.83;;;;;;;27.75;48.90;99514.22;1726698;82;21081;-56
2021/07/01 16:29:26;;;;;;;5.95;2.77;;;;;;;27.73;49.11;99511.01;1725961;82;20962;-55
2021/07/01 16:31:52;;;;;;;6.08;3.02;;;;;;;27.73;49.51;99515.14;1725087;82;21005;-56
2021/07/01 16:34:19;;;;;;;10.23;2.65;;;;;;;27.71;49.62;99514.70;1730220;82;21152;-56
2021/07/01 16:36:47;;;;;;;;;;;;;;;27.71;49.76;99514.70;1729863;82;20958;-56
2021/07/01 16:39:13;;;;;;;9.38;2.62;;;;;;;27.70;49.96;99511.72;1728293;82;20171;-56
2021/07/01 16:41:40;;;;;;;9.38;3.42;;;;;;;27.68;49.90;99508.53;1726739;82;21060;-55
2021/07/01 16:44:07;;;;;;;6.80;3.50;;;;;;;27.65;50.04;99505.67;1726971;82;21002;-56
2021/07/01 16:46:36;;;;;;;8.43;3.10;;;;;;;27.57;50.30;99510.20;1729239;82;21821;-55
2021/07/01 16:49:09;;;;;;;5.95;3.10;;;;;;;27.50;50.31;99508.05;1721538;82;21061;-56
2021/07/01 16:51:45;;;;;;;11.05;3.50;;;;;;;27.42;50.54;99510.41;1726550;82;21026;-56
2021/07/01 16:54:14;;;;;;;8.60;2.92;;;;;;;27.36;50.75;99512.61;1725040;82;20986;-55
2021/07/01 16:56:53;;;;;;;9.83;3.62;;;;;;;27.32;50.99;99518.55;1724601;82;21058;-56
2021/07/01 16:59:23;;;;;;;9.08;3.25;;;;;;;27.28;51.00;99518.47;1726386;82;21172;-54
2021/07/01 17:01:55;;;;;;;8.08;3.25;;;;;;;27.24;51.34;99519.53;1724723;82;20938;-56
2021/07/01 17:04:25;;;;;;;10.20;3.47;;;;;;;27.24;51.53;99526.41;1723790;82;20879;-55
2021/07/01 17:06:53;;;;;;;9.10;3.50;;;;;;;27.23;51.58;99524.21;1727838;82;20974;-55
2021/07/01 17:09:21;;;;;;;7.40;3.45;;;;;;;27.23;51.65;99526.17;1728987;82;21057;-56
2021/07/01 17:11:49;;;;;;;10.30;3.22;;;;;;;27.19;51.72;99523.89;1727912;82;21133;-56
2021/07/01 17:14:16;;;;;;;11.65;3.40;;;;;;;27.15;51.73;99525.73;1726371;82;21013;-56
2021/07/01 17:16:50;;;;;;;11.30;3.67;;;;;;;27.10;51.77;99522.67;1723807;82;21026;-56
2021/07/01 17:19:22;;;;;;;7.95;3.12;;;;;;;27.04;51.80;99527.61;1724592;82;20975;-55
2021/07/01 17:21:49;;;;;;;8.65;3.35;;;;;;;26.99;51.77;99518.25;1720677;82;21132;-55
2021/07/01 17:24:16;;;;;;;7.45;3.42;;;;;;;26.94;51.93;99523.98;1719915;82;21185;-55
2021/07/01 17:26:44;;;;;;;8.75;3.77;;;;;;;26.90;51.73;99517.02;1721140;82;20970;-55
2021/07/01 17:29:12;;;;;;;7.95;3.55;;;;;;;26.87;51.79;99522.39;1721056;82;20974;-56
2021/07/01 17:31:40;;;;;;;8.30;3.35;;;;;;;26.82;52.06;99520.70;1721396;82;21580;-55
2021/07/01 17:34:09;;;;;;;10.30;3.55;;;;;;;26.75;52.31;99519.94;1723120;82;21529;-56
2021/07/01 17:36:35;;;;;;;9.35;3.87;;;;;;;26.68;52.50;99516.97;1695267;82;21606;-54
2021/07/01 17:39:02;;;;;;;8.85;3.17;;;;;;;26.62;52.73;99513.39;1721025;82;20896;-55
2021/07/01 17:41:28;;;;;;;8.75;3.40;;;;;;;26.53;52.69;99514.34;1721368;82;21026;-56
2021/07/01 17:43:55;;;;;;;7.10;3.20;;;;;;;26.46;52.64;99507.80;1723211;82;21074;-55
2021/07/01 17:46:24;;;;;;;15.68;3.90;;;;;;;26.42;52.78;99520.66;1722739;82;20939;-55
2021/07/01 17:48:52;;;;;;;16.42;4.17;;;;;;;26.36;53.00;99514.59;1719594;82;21847;-56
2021/07/01 17:51:20;;;;;;;15.32;3.65;;;;;;;26.28;53.08;99513.58;1720483;82;21583;-56
2021/07/01 17:53:47;;;;;;;11.28;3.65;;;;;;;26.23;53.22;99511.05;1723421;82;21575;-57
2021/07/01 17:56:13;;;;;;;12.55;3.80;;;;;;;26.18;53.34;99512.08;1721160;82;20963;-56
2021/07/01 17:58:39;;;;;;;10.98;4.12;;;;;;;26.14;53.33;99507.63;1722509;82;21034;-55
2021/07/01 18:01:06;;;;;;;6.33;3.75;;;;;;;26.08;53.09;99509.80;1721317;82;21811;-56
2021/07/01 18:03:33;;;;;;;10.82;4.00;;;;;;;26.07;52.97;99516.42;1721151;82;21010;-55